createdAt,value
2022-08-07T00:00:30.081Z,14.04
2022-08-07T00:01:44.148Z,14.01
2022-08-07T00:02:44.563Z,14.03
2022-08-07T00:03:36.627Z,13.96
2022-08-07T00:04:30.091Z,13.96
2022-08-07T00:05:30.023Z,13.97
2022-08-07T00:06:33.363Z,13.94
2022-08-07T00:07:30.229Z,13.93
2022-08-07T00:08:30.070Z,13.93
2022-08-07T00:09:35.404Z,13.90
2022-08-07T00:10:30.996Z,13.88
2022-08-07T00:11:33.075Z,13.88
2022-08-07T00:12:29.911Z,13.90
2022-08-07T00:13:29.922Z,13.91
2022-08-07T00:14:31.059Z,13.90
2022-08-07T00:15:38.028Z,13.86
2022-08-07T00:16:29.859Z,13.83
2022-08-07T00:17:29.929Z,13.82
2022-08-07T00:18:29.847Z,13.80
2022-08-07T00:19:59.736Z,13.80
2022-08-07T00:20:34.385Z,13.80
2022-08-07T00:21:56.352Z,13.79
2022-08-07T00:22:35.334Z,13.79
2022-08-07T00:23:30.195Z,13.75
2022-08-07T00:24:31.556Z,13.75
2022-08-07T00:25:37.304Z,13.73
2022-08-07T00:26:58.512Z,13.73
2022-08-07T00:27:29.953Z,13.75
2022-08-07T00:28:33.790Z,13.75
2022-08-07T00:29:31.374Z,13.73
2022-08-07T00:30:29.664Z,13.72
2022-08-07T00:31:37.511Z,13.72
2022-08-07T00:32:29.675Z,13.72
2022-08-07T00:33:29.646Z,13.76
2022-08-07T00:34:29.620Z,13.80
2022-08-07T00:35:30.328Z,13.80
2022-08-07T00:36:29.611Z,13.78
2022-08-07T00:37:29.686Z,13.80
2022-08-07T00:38:30.962Z,13.79
2022-08-07T00:39:29.613Z,13.78
2022-08-07T00:40:36.565Z,13.78
2022-08-07T00:41:29.539Z,13.78
2022-08-07T00:42:29.497Z,13.79
2022-08-07T00:44:00.521Z,13.75
2022-08-07T00:44:29.548Z,13.75
2022-08-07T00:45:30.476Z,13.75
2022-08-07T00:46:29.448Z,13.73
2022-08-07T00:48:09.394Z,13.76
2022-08-07T00:48:31.793Z,13.76
2022-08-07T00:50:19.825Z,13.79
2022-08-07T00:50:51.214Z,13.80
2022-08-07T00:51:56.434Z,13.76
2022-08-07T00:52:29.380Z,13.78
2022-08-07T00:53:39.000Z,13.78
2022-08-07T00:54:29.349Z,13.75
2022-08-07T00:56:03.131Z,13.75
2022-08-07T00:56:30.283Z,13.73
2022-08-07T00:57:29.484Z,13.73
2022-08-07T00:58:29.292Z,13.72
2022-08-07T00:59:35.931Z,13.71
2022-08-07T01:00:29.264Z,13.68
2022-08-07T01:01:29.299Z,13.67
2022-08-07T01:02:29.755Z,13.68
2022-08-07T01:03:55.572Z,13.65
2022-08-07T01:04:30.411Z,13.63
2022-08-07T01:05:29.217Z,13.64
2022-08-07T01:06:29.318Z,13.65
2022-08-07T01:07:30.837Z,13.64
2022-08-07T01:08:29.195Z,13.64
2022-08-07T01:10:02.334Z,13.63
2022-08-07T01:10:29.127Z,13.64
2022-08-07T01:12:09.224Z,13.60
2022-08-07T01:12:34.941Z,13.55
2022-08-07T01:13:29.104Z,13.53
2022-08-07T01:14:29.120Z,13.47
2022-08-07T01:16:01.000Z,13.46
2022-08-07T01:16:30.342Z,13.43
2022-08-07T01:17:29.216Z,13.42
2022-08-07T01:18:29.025Z,13.40
2022-08-07T01:19:32.172Z,13.42
2022-08-07T01:20:35.031Z,13.38
2022-08-07T01:21:29.001Z,13.38
2022-08-07T01:22:29.093Z,13.40
2022-08-07T01:23:37.903Z,13.42
2022-08-07T01:24:28.944Z,13.43
2022-08-07T01:25:54.277Z,13.47
2022-08-07T01:26:28.960Z,13.49
2022-08-07T01:27:32.311Z,13.51
2022-08-07T01:28:28.905Z,13.51
2022-08-07T01:29:31.330Z,13.49
2022-08-07T01:30:28.867Z,13.54
2022-08-07T01:31:29.991Z,13.54
2022-08-07T01:32:28.872Z,13.51
2022-08-07T01:33:53.782Z,13.54
2022-08-07T01:34:30.966Z,13.51
2022-08-07T01:35:53.578Z,13.47
2022-08-07T01:36:34.094Z,13.45
2022-08-07T01:37:29.537Z,13.46
2022-08-07T01:38:29.246Z,13.42
2022-08-07T01:39:40.402Z,13.45
2022-08-07T01:40:28.733Z,13.43
2022-08-07T01:41:28.725Z,13.39
2022-08-07T01:42:39.754Z,13.39
2022-08-07T01:43:34.767Z,13.39
2022-08-07T01:44:28.753Z,13.36
2022-08-07T01:45:37.086Z,13.35
2022-08-07T01:46:28.657Z,13.35
2022-08-07T01:48:20.438Z,13.32
2022-08-07T01:48:35.970Z,13.35
2022-08-07T01:49:28.626Z,13.36
2022-08-07T01:50:29.301Z,13.30
2022-08-07T01:52:02.260Z,13.27
2022-08-07T01:52:28.613Z,13.26
2022-08-07T01:54:12.206Z,13.26
2022-08-07T01:54:33.387Z,13.26
2022-08-07T01:55:28.545Z,13.27
2022-08-07T01:56:28.839Z,13.29
2022-08-07T01:57:28.518Z,13.30
2022-08-07T01:58:29.776Z,13.32
2022-08-07T01:59:30.986Z,13.35
2022-08-07T02:00:28.834Z,13.38
2022-08-07T02:02:02.646Z,13.35
2022-08-07T02:03:12.086Z,13.36
2022-08-07T02:03:42.663Z,13.32
2022-08-07T02:04:28.497Z,13.26
2022-08-07T02:05:42.972Z,13.23
2022-08-07T02:06:32.151Z,13.20
2022-08-07T02:07:44.942Z,13.19
2022-08-07T02:08:28.406Z,13.16
2022-08-07T02:09:52.062Z,13.16
2022-08-07T02:10:28.327Z,13.17
2022-08-07T02:11:57.712Z,13.17
2022-08-07T02:12:29.335Z,13.16
2022-08-07T02:13:46.995Z,13.11
2022-08-07T02:14:35.950Z,13.06
2022-08-07T02:15:28.312Z,13.06
2022-08-07T02:16:32.835Z,13.04
2022-08-07T02:17:33.893Z,13.05
2022-08-07T02:18:29.953Z,13.04
2022-08-07T02:20:05.627Z,13.04
2022-08-07T02:20:28.243Z,13.04
2022-08-07T02:21:28.193Z,13.06
2022-08-07T02:22:28.172Z,13.09
2022-08-07T02:23:28.243Z,13.09
2022-08-07T02:24:29.664Z,13.09
2022-08-07T02:26:10.429Z,13.09
2022-08-07T02:26:32.445Z,13.09
2022-08-07T02:27:34.721Z,13.08
2022-08-07T02:28:28.103Z,13.11
2022-08-07T02:29:28.132Z,13.13
2022-08-07T02:30:28.074Z,13.13
2022-08-07T02:31:29.317Z,13.13
2022-08-07T02:32:29.938Z,13.13
2022-08-07T02:33:42.177Z,13.11
2022-08-07T02:34:28.010Z,13.09
2022-08-07T02:36:29.816Z,13.05
2022-08-07T02:36:36.943Z,13.02
2022-08-07T02:37:28.177Z,13.08
2022-08-07T02:38:31.881Z,13.08
2022-08-07T02:39:43.245Z,13.08
2022-08-07T02:40:34.893Z,13.11
2022-08-07T02:41:33.516Z,13.13
2022-08-07T02:42:27.903Z,13.13
2022-08-07T02:43:27.922Z,13.11
2022-08-07T02:44:34.465Z,13.11
2022-08-07T02:45:58.674Z,13.09
2022-08-07T02:46:27.860Z,13.06
2022-08-07T02:47:27.849Z,13.05
2022-08-07T02:48:28.136Z,13.02
2022-08-07T02:49:28.878Z,13.04
2022-08-07T02:50:27.840Z,13.01
2022-08-07T02:51:41.776Z,12.98
2022-08-07T02:52:32.212Z,12.98
2022-08-07T02:53:27.809Z,12.95
2022-08-07T02:54:27.742Z,12.91
2022-08-07T02:56:03.958Z,12.93
2022-08-07T02:56:27.993Z,12.90
2022-08-07T02:57:31.043Z,12.88
2022-08-07T02:58:27.699Z,12.87
2022-08-07T02:59:27.883Z,12.86
2022-08-07T03:00:27.674Z,12.86
2022-08-07T03:01:36.510Z,12.86
2022-08-07T03:02:27.679Z,12.86
2022-08-07T03:03:29.639Z,12.83
2022-08-07T03:04:27.610Z,12.79
2022-08-07T03:05:29.237Z,12.80
2022-08-07T03:06:33.090Z,12.79
2022-08-07T03:07:43.179Z,12.81
2022-08-07T03:08:29.553Z,12.81
2022-08-07T03:09:41.783Z,12.81
2022-08-07T03:10:27.532Z,12.84
2022-08-07T03:11:28.140Z,12.83
2022-08-07T03:12:31.026Z,12.86
2022-08-07T03:13:27.497Z,12.83
2022-08-07T03:14:27.714Z,12.87
2022-08-07T03:15:30.391Z,12.90
2022-08-07T03:16:27.826Z,12.90
2022-08-07T03:17:27.725Z,12.87
2022-08-07T03:18:34.965Z,12.88
2022-08-07T03:19:29.170Z,12.87
2022-08-07T03:20:27.434Z,12.84
2022-08-07T03:21:27.397Z,12.84
2022-08-07T03:22:29.595Z,12.83
2022-08-07T03:23:34.165Z,12.79
2022-08-07T03:24:28.155Z,12.80
2022-08-07T03:25:27.342Z,12.79
2022-08-07T03:26:27.360Z,12.80
2022-08-07T03:27:30.494Z,12.77
2022-08-07T03:28:37.208Z,12.76
2022-08-07T03:29:27.577Z,12.72
2022-08-07T03:30:27.260Z,12.72
2022-08-07T03:31:43.476Z,12.73
2022-08-07T03:32:28.417Z,12.72
2022-08-07T03:33:27.191Z,12.73
2022-08-07T03:34:27.540Z,12.69
2022-08-07T03:35:27.154Z,12.68
2022-08-07T03:36:27.147Z,12.63
2022-08-07T03:37:27.659Z,12.61
2022-08-07T03:38:29.414Z,12.58
2022-08-07T03:39:58.969Z,12.55
2022-08-07T03:40:30.898Z,12.54
2022-08-07T03:41:42.466Z,12.53
2022-08-07T03:42:27.058Z,12.51
2022-08-07T03:43:30.678Z,12.54
2022-08-07T03:44:31.925Z,12.55
2022-08-07T03:45:31.099Z,12.53
2022-08-07T03:46:27.014Z,12.48
2022-08-07T03:47:28.029Z,12.50
2022-08-07T03:48:26.987Z,12.50
2022-08-07T03:49:26.958Z,12.50
2022-08-07T03:50:28.609Z,12.48
2022-08-07T03:51:30.687Z,12.46
2022-08-07T03:52:27.317Z,12.44
2022-08-07T03:53:50.238Z,12.44
2022-08-07T03:54:54.617Z,12.47
2022-08-07T03:55:53.156Z,12.48
2022-08-07T03:56:33.221Z,12.50
2022-08-07T03:58:35.122Z,12.51
2022-08-07T03:59:13.322Z,12.51
2022-08-07T03:59:26.827Z,12.48
2022-08-07T04:00:30.642Z,12.51
2022-08-07T04:01:26.833Z,12.55
2022-08-07T04:02:26.848Z,12.55
2022-08-07T04:03:26.766Z,12.55
2022-08-07T04:04:26.773Z,12.53
2022-08-07T04:05:28.697Z,12.50
2022-08-07T04:06:36.340Z,12.53
2022-08-07T04:07:41.637Z,12.58
2022-08-07T04:08:26.774Z,12.55
2022-08-07T04:09:29.477Z,12.58
2022-08-07T04:10:26.720Z,12.62
2022-08-07T04:12:27.908Z,12.61
2022-08-07T04:12:35.298Z,12.61
2022-08-07T04:13:27.651Z,12.61
2022-08-07T04:14:38.915Z,12.59
2022-08-07T04:15:26.629Z,12.55
2022-08-07T04:16:30.993Z,12.55
2022-08-07T04:18:30.963Z,12.55
2022-08-07T04:19:04.040Z,12.58
2022-08-07T04:19:34.037Z,12.55
2022-08-07T04:20:26.604Z,12.61
2022-08-07T04:21:26.531Z,12.63
2022-08-07T04:22:28.968Z,12.65
2022-08-07T04:23:43.212Z,12.66
2022-08-07T04:24:30.691Z,12.68
2022-08-07T04:25:29.031Z,12.68
2022-08-07T04:26:28.660Z,12.69
2022-08-07T04:27:26.852Z,12.66
2022-08-07T04:28:26.444Z,12.68
2022-08-07T04:29:26.450Z,12.66
2022-08-07T04:30:35.372Z,12.66
2022-08-07T04:31:39.187Z,12.69
2022-08-07T04:32:33.980Z,12.68
2022-08-07T04:33:26.389Z,12.68
2022-08-07T04:34:32.964Z,12.68
2022-08-07T04:35:26.358Z,12.69
2022-08-07T04:36:26.523Z,12.68
2022-08-07T04:37:26.320Z,12.69
2022-08-07T04:38:26.351Z,12.69
2022-08-07T04:39:26.476Z,12.69
2022-08-07T04:40:29.718Z,12.69
2022-08-07T04:41:26.276Z,12.71
2022-08-07T04:42:28.700Z,12.76
2022-08-07T04:43:53.513Z,12.77
2022-08-07T04:44:26.278Z,12.80
2022-08-07T04:45:57.828Z,12.84
2022-08-07T04:46:34.250Z,12.84
2022-08-07T04:48:01.373Z,12.86
2022-08-07T04:48:26.190Z,12.87
2022-08-07T04:49:26.160Z,12.91
2022-08-07T04:50:26.206Z,12.91
2022-08-07T04:51:27.306Z,12.93
2022-08-07T04:52:27.433Z,12.96
2022-08-07T04:53:40.251Z,12.93
2022-08-07T04:54:30.341Z,12.95
2022-08-07T04:58:14.700Z,12.98
2022-08-07T04:59:09.210Z,12.99
2022-08-07T05:00:12.025Z,13.23
2022-08-07T05:00:30.760Z,13.42
2022-08-07T05:00:47.589Z,13.54
2022-08-07T05:01:47.541Z,13.55
2022-08-07T05:02:47.740Z,13.60
2022-08-07T05:04:07.855Z,13.75
2022-08-07T05:04:50.149Z,13.91
2022-08-07T05:05:52.915Z,14.15
2022-08-07T05:06:52.921Z,14.34
2022-08-07T05:07:48.690Z,14.59
2022-08-07T05:09:00.814Z,14.90
2022-08-07T05:09:47.427Z,15.23
2022-08-07T05:10:47.342Z,15.54
2022-08-07T05:11:58.643Z,15.80
2022-08-07T05:12:53.656Z,15.85
2022-08-07T05:14:55.123Z,15.95
2022-08-07T05:15:04.803Z,16.10
2022-08-07T05:15:47.300Z,16.39
2022-08-07T05:16:47.267Z,16.58
2022-08-07T05:18:00.599Z,16.61
2022-08-07T05:18:47.256Z,16.73
2022-08-07T05:19:47.247Z,16.92
2022-08-07T05:20:47.247Z,16.90
2022-08-07T05:21:58.982Z,16.99
2022-08-07T05:22:47.525Z,17.22
2022-08-07T05:23:47.190Z,17.57
2022-08-07T05:24:47.159Z,17.62
2022-08-07T05:26:11.550Z,17.86
2022-08-07T05:26:47.265Z,17.76
2022-08-07T05:28:03.163Z,17.87
2022-08-07T05:28:50.007Z,18.01
2022-08-07T05:29:51.149Z,18.24
2022-08-07T05:30:47.251Z,18.30
2022-08-07T05:31:51.063Z,18.12
2022-08-07T05:32:47.089Z,18.13
2022-08-07T05:34:01.376Z,18.11
2022-08-07T05:34:47.034Z,18.05
2022-08-07T05:35:47.025Z,18.18
2022-08-07T05:36:49.068Z,18.12
2022-08-07T05:37:47.001Z,18.05
2022-08-07T05:38:59.451Z,18.20
2022-08-07T05:40:14.159Z,18.27
2022-08-07T05:40:51.449Z,18.09
2022-08-07T05:41:46.947Z,18.08
2022-08-07T05:42:55.970Z,18.21
2022-08-07T05:44:08.430Z,18.12
2022-08-07T05:45:04.472Z,18.12
2022-08-07T05:45:48.300Z,18.28
2022-08-07T05:46:46.890Z,18.36
2022-08-07T05:48:02.017Z,18.49
2022-08-07T05:48:58.454Z,18.33
2022-08-07T05:49:46.857Z,18.17
2022-08-07T05:50:46.844Z,18.11
2022-08-07T05:51:46.927Z,18.05
2022-08-07T05:52:46.845Z,18.06
2022-08-07T05:54:12.141Z,18.15
2022-08-07T05:54:55.374Z,18.05
2022-08-07T05:56:03.311Z,17.90
2022-08-07T05:56:46.779Z,17.88
2022-08-07T05:57:46.831Z,18.05
2022-08-07T05:58:52.399Z,18.12
2022-08-07T05:59:57.359Z,18.15
2022-08-07T06:00:46.713Z,18.43
2022-08-07T06:01:46.728Z,18.49
2022-08-07T06:02:46.977Z,18.34
2022-08-07T06:03:56.503Z,18.30
2022-08-07T06:04:46.649Z,18.18
2022-08-07T06:05:49.075Z,18.20
2022-08-07T06:06:47.490Z,18.13
2022-08-07T06:08:09.274Z,18.21
2022-08-07T06:08:46.854Z,18.27
2022-08-07T06:10:05.702Z,18.26
2022-08-07T06:10:46.556Z,18.26
2022-08-07T06:11:46.553Z,18.49
2022-08-07T06:12:46.517Z,18.67
2022-08-07T06:14:12.182Z,18.60
2022-08-07T06:14:49.474Z,18.79
2022-08-07T06:15:46.491Z,18.81
2022-08-07T06:16:50.565Z,18.89
2022-08-07T06:17:53.537Z,18.82
2022-08-07T06:18:51.805Z,18.60
2022-08-07T06:19:51.797Z,18.81
2022-08-07T06:20:50.587Z,18.93
2022-08-07T06:22:23.464Z,19.01
2022-08-07T06:22:50.659Z,19.12
2022-08-07T06:24:38.242Z,19.09
2022-08-07T06:25:01.251Z,19.16
2022-08-07T06:25:54.905Z,19.07
2022-08-07T06:26:46.364Z,18.96
2022-08-07T06:28:00.960Z,19.13
2022-08-07T06:28:46.315Z,19.20
2022-08-07T06:29:46.318Z,19.15
2022-08-07T06:30:46.287Z,19.12
2022-08-07T06:31:49.894Z,19.12
2022-08-07T06:32:46.291Z,19.01
2022-08-07T06:33:46.253Z,19.16
2022-08-07T06:34:46.244Z,19.27
2022-08-07T06:36:06.183Z,19.39
2022-08-07T06:36:46.205Z,19.42
2022-08-07T06:37:46.393Z,19.34
2022-08-07T06:38:51.371Z,19.41
2022-08-07T06:40:21.268Z,19.39
2022-08-07T06:40:46.317Z,19.59
2022-08-07T06:42:01.853Z,19.60
2022-08-07T06:42:46.632Z,19.49
2022-08-07T06:43:59.454Z,19.37
2022-08-07T06:44:46.143Z,19.22
2022-08-07T06:45:46.099Z,19.39
2022-08-07T06:46:53.605Z,19.56
2022-08-07T06:47:57.091Z,19.60
2022-08-07T06:48:46.065Z,19.79
2022-08-07T06:49:51.902Z,19.92
2022-08-07T06:50:47.955Z,19.81
2022-08-07T06:51:50.065Z,19.75
2022-08-07T06:52:45.983Z,19.81
2022-08-07T06:55:27.295Z,19.93
2022-08-07T06:56:00.328Z,20.07
2022-08-07T06:56:07.315Z,20.19
2022-08-07T06:56:49.760Z,20.39
2022-08-07T06:57:49.949Z,20.52
2022-08-07T07:00:13.918Z,20.49
2022-08-07T07:00:22.103Z,20.50
2022-08-07T07:00:45.874Z,20.42
2022-08-07T07:01:50.592Z,20.11
2022-08-07T07:02:53.281Z,20.08
2022-08-07T07:03:48.890Z,20.12
2022-08-07T07:04:55.119Z,20.25
2022-08-07T07:06:02.706Z,20.46
2022-08-07T07:07:00.538Z,20.71
2022-08-07T07:08:00.050Z,20.83
2022-08-07T07:08:46.716Z,20.85
2022-08-07T07:09:45.773Z,20.67
2022-08-07T07:10:54.692Z,20.65
2022-08-07T07:12:07.823Z,20.71
2022-08-07T07:12:48.741Z,20.74
2022-08-07T07:13:58.618Z,20.56
2022-08-07T07:14:45.701Z,20.52
2022-08-07T07:15:45.738Z,20.49
2022-08-07T07:16:51.096Z,20.55
2022-08-07T07:17:45.665Z,20.48
2022-08-07T07:18:46.933Z,20.56
2022-08-07T07:19:57.858Z,20.60
2022-08-07T07:20:45.700Z,20.68
2022-08-07T07:22:05.070Z,20.48
2022-08-07T07:24:09.725Z,20.52
2022-08-07T07:24:16.758Z,20.55
2022-08-07T07:25:03.002Z,20.50
2022-08-07T07:26:37.739Z,20.68
2022-08-07T07:26:49.623Z,20.67
2022-08-07T07:27:55.669Z,20.71
2022-08-07T07:29:39.208Z,20.80
2022-08-07T07:30:10.032Z,20.90
2022-08-07T07:30:45.495Z,20.93
2022-08-07T07:31:46.582Z,21.03
2022-08-07T07:32:45.455Z,21.11
2022-08-07T07:33:49.030Z,21.04
2022-08-07T07:34:45.434Z,21.19
2022-08-07T07:36:03.889Z,21.37
2022-08-07T07:36:47.908Z,21.56
2022-08-07T07:37:52.579Z,21.75
2022-08-07T07:38:46.222Z,21.60
2022-08-07T07:39:52.234Z,21.65
2022-08-07T07:40:45.344Z,21.48
2022-08-07T07:42:02.015Z,21.47
2022-08-07T07:42:50.931Z,21.53
2022-08-07T07:44:14.401Z,21.69
2022-08-07T07:44:45.299Z,21.69
2022-08-07T07:46:36.690Z,21.77
2022-08-07T07:47:09.302Z,21.80
2022-08-07T07:47:52.814Z,21.73
2022-08-07T07:48:46.001Z,21.69
2022-08-07T07:50:33.877Z,21.59
2022-08-07T07:50:45.218Z,21.53
2022-08-07T07:51:57.937Z,21.73
2022-08-07T07:52:47.118Z,21.78
2022-08-07T07:53:52.121Z,21.82
2022-08-07T07:54:51.016Z,21.90
2022-08-07T07:55:45.664Z,22.00
2022-08-07T07:56:45.138Z,21.91
2022-08-07T07:57:53.301Z,21.88
2022-08-07T07:58:45.117Z,21.71
2022-08-07T07:59:52.197Z,21.59
2022-08-07T08:00:45.730Z,21.60
2022-08-07T08:02:03.563Z,21.82
2022-08-07T08:03:05.005Z,21.91
2022-08-07T08:04:11.053Z,21.81
2022-08-07T08:04:45.088Z,21.75
2022-08-07T08:05:54.924Z,21.77
2022-08-07T08:06:48.126Z,21.75
2022-08-07T08:07:59.882Z,21.98
2022-08-07T08:08:45.012Z,21.96
2022-08-07T08:09:52.280Z,22.11
2022-08-07T08:10:44.963Z,22.15
2022-08-07T08:11:59.299Z,22.12
2022-08-07T08:12:59.231Z,21.98
2022-08-07T08:13:54.614Z,21.98
2022-08-07T08:14:44.915Z,22.06
2022-08-07T08:15:58.384Z,22.27
2022-08-07T08:16:50.341Z,22.37
2022-08-07T08:17:57.803Z,22.49
2022-08-07T08:18:45.114Z,22.49
2022-08-07T08:20:19.495Z,22.51
2022-08-07T08:20:44.842Z,22.70
2022-08-07T08:21:55.489Z,22.86
2022-08-07T08:22:55.665Z,22.96
2022-08-07T08:23:44.779Z,23.10
2022-08-07T08:24:46.495Z,22.93
2022-08-07T08:25:49.289Z,22.98
2022-08-07T08:26:44.764Z,23.14
2022-08-07T08:27:57.580Z,23.25
2022-08-07T08:28:45.235Z,23.33
2022-08-07T08:29:54.458Z,23.44
2022-08-07T08:30:51.094Z,23.48
2022-08-07T08:32:10.258Z,23.54
2022-08-07T08:32:49.203Z,23.63
2022-08-07T08:33:49.564Z,23.56
2022-08-07T08:34:44.945Z,23.56
2022-08-07T08:35:46.913Z,23.60
2022-08-07T08:36:46.128Z,23.59
2022-08-07T08:38:00.397Z,23.48
2022-08-07T08:38:44.697Z,23.51
2022-08-07T08:39:55.129Z,23.36
2022-08-07T08:40:46.826Z,23.13
2022-08-07T08:41:58.622Z,23.08
2022-08-07T08:42:44.554Z,23.11
2022-08-07T08:43:50.585Z,23.21
2022-08-07T08:44:45.782Z,23.33
2022-08-07T08:45:59.299Z,23.28
2022-08-07T08:46:44.839Z,23.56
2022-08-07T08:47:51.955Z,23.67
2022-08-07T08:48:44.494Z,23.56
2022-08-07T08:49:46.739Z,23.60
2022-08-07T08:50:44.476Z,23.71
2022-08-07T08:52:12.580Z,23.63
2022-08-07T08:52:54.053Z,23.67
2022-08-07T08:53:44.428Z,23.60
2022-08-07T08:54:44.396Z,23.56
2022-08-07T08:55:55.537Z,23.48
2022-08-07T08:56:47.312Z,23.55
2022-08-07T08:57:44.325Z,23.66
2022-08-07T08:58:44.376Z,23.66
2022-08-07T08:59:47.882Z,23.78
2022-08-07T09:00:48.706Z,23.92
2022-08-07T09:01:46.602Z,23.98
2022-08-07T09:02:49.418Z,24.10
2022-08-07T09:03:47.364Z,24.21
2022-08-07T09:04:44.251Z,24.25
2022-08-07T09:05:44.228Z,24.31
2022-08-07T09:06:48.091Z,24.28
2022-08-07T09:07:46.210Z,24.22
2022-08-07T09:08:44.215Z,24.23
2022-08-07T09:09:44.170Z,24.29
2022-08-07T09:10:44.899Z,24.28
2022-08-07T09:11:53.350Z,24.06
2022-08-07T09:12:53.133Z,23.85
2022-08-07T09:13:44.164Z,23.78
2022-08-07T09:14:50.558Z,24.06
2022-08-07T09:16:23.810Z,24.19
2022-08-07T09:16:44.099Z,24.41
2022-08-07T09:17:59.225Z,24.60
2022-08-07T09:18:52.952Z,24.53
2022-08-07T09:19:50.883Z,24.62
2022-08-07T09:20:57.900Z,24.71
2022-08-07T09:22:22.455Z,24.76
2022-08-07T09:24:55.241Z,24.62
2022-08-07T09:25:07.180Z,24.68
2022-08-07T09:25:44.252Z,24.75
2022-08-07T09:26:47.885Z,24.79
2022-08-07T09:27:59.641Z,24.86
2022-08-07T09:30:07.566Z,24.76
2022-08-07T09:30:13.937Z,24.96
2022-08-07T09:30:46.751Z,25.12
2022-08-07T09:31:49.383Z,25.37
2022-08-07T09:32:44.142Z,25.55
2022-08-07T09:33:56.942Z,25.59
2022-08-07T09:34:44.120Z,25.70
2022-08-07T09:36:04.971Z,25.68
2022-08-07T09:36:46.828Z,25.59
2022-08-07T09:37:48.210Z,25.52
2022-08-07T09:38:50.215Z,25.43
2022-08-07T09:39:55.327Z,25.04
2022-08-07T09:40:44.064Z,24.81
2022-08-07T09:41:59.114Z,24.86
2022-08-07T09:42:44.023Z,24.86
2022-08-07T09:44:05.910Z,24.97
2022-08-07T09:47:24.970Z,24.99
2022-08-07T09:48:01.690Z,25.09
2022-08-07T09:48:11.807Z,25.16
2022-08-07T09:50:02.567Z,25.18
2022-08-07T09:50:23.971Z,25.01
2022-08-07T09:51:14.758Z,25.12
2022-08-07T09:52:34.685Z,25.19
2022-08-07T09:53:07.403Z,25.03
2022-08-07T09:54:07.342Z,25.15
2022-08-07T09:55:16.955Z,25.27
2022-08-07T09:56:07.370Z,25.40
2022-08-07T09:57:07.315Z,25.48
2022-08-07T09:58:07.306Z,25.43
2022-08-07T09:59:07.754Z,25.45
2022-08-07T10:00:07.268Z,25.34
2022-08-07T10:01:08.250Z,25.40
2022-08-07T10:02:07.304Z,25.46
2022-08-07T10:03:08.081Z,25.63
2022-08-07T10:04:14.975Z,25.86
2022-08-07T10:05:12.617Z,26.04
2022-08-07T10:06:11.980Z,26.11
2022-08-07T10:07:24.623Z,26.27
2022-08-07T10:08:07.165Z,26.24
2022-08-07T10:09:07.164Z,26.30
2022-08-07T10:10:07.198Z,26.31
2022-08-07T10:11:59.494Z,26.20
2022-08-07T10:12:16.762Z,26.19
2022-08-07T10:13:15.770Z,26.19
2022-08-07T10:14:07.095Z,26.23
2022-08-07T10:15:07.112Z,25.96
2022-08-07T10:16:07.109Z,25.92
2022-08-07T10:17:14.104Z,25.89
2022-08-07T10:18:07.040Z,26.11
2022-08-07T10:19:11.438Z,25.78
2022-08-07T10:20:07.009Z,25.64
2022-08-07T10:21:19.598Z,25.56
2022-08-07T10:22:15.384Z,25.67
2022-08-07T10:23:07.778Z,25.75
2022-08-07T10:24:08.809Z,25.70
2022-08-07T10:25:06.959Z,25.77
2022-08-07T10:26:06.951Z,25.40
2022-08-07T10:27:10.627Z,25.46
2022-08-07T10:28:06.935Z,25.70
2022-08-07T10:29:06.915Z,25.48
2022-08-07T10:30:06.897Z,25.06
2022-08-07T10:31:11.217Z,24.70
2022-08-07T10:32:06.855Z,24.89
2022-08-07T10:33:06.855Z,25.27
2022-08-07T10:34:15.329Z,25.51
2022-08-07T10:35:08.936Z,25.68
2022-08-07T10:36:11.286Z,25.75
2022-08-07T10:37:12.379Z,25.95
2022-08-07T10:38:21.663Z,26.04
2022-08-07T10:39:06.802Z,26.10
2022-08-07T10:40:09.104Z,25.96
2022-08-07T10:41:06.743Z,26.05
2022-08-07T10:42:09.234Z,26.15
2022-08-07T10:43:06.724Z,26.28
2022-08-07T10:44:07.649Z,26.33
2022-08-07T10:45:06.697Z,26.36
2022-08-07T10:46:06.700Z,26.30
2022-08-07T10:47:11.821Z,26.24
2022-08-07T10:48:07.328Z,26.33
2022-08-07T10:49:06.639Z,26.38
2022-08-07T10:50:06.662Z,26.34
2022-08-07T10:51:06.616Z,26.16
2022-08-07T10:52:13.764Z,26.05
2022-08-07T10:53:08.923Z,25.92
2022-08-07T10:54:06.649Z,25.89
2022-08-07T10:55:26.961Z,25.92
2022-08-07T10:56:06.571Z,25.95
2022-08-07T10:57:06.531Z,26.10
2022-08-07T10:58:06.558Z,26.30
2022-08-07T10:59:06.514Z,26.45
2022-08-07T11:00:06.484Z,26.39
2022-08-07T11:01:12.225Z,26.51
2022-08-07T11:02:27.375Z,26.57
2022-08-07T11:03:10.927Z,26.48
2022-08-07T11:04:23.326Z,26.52
2022-08-07T11:05:10.290Z,26.48
2022-08-07T11:06:06.406Z,26.52
2022-08-07T11:07:24.728Z,26.73
2022-08-07T11:08:06.659Z,26.67
2022-08-07T11:09:11.158Z,26.86
2022-08-07T11:10:07.252Z,27.04
2022-08-07T11:11:06.367Z,27.08
2022-08-07T11:12:06.391Z,27.22
2022-08-07T11:13:06.337Z,27.45
2022-08-07T11:14:43.504Z,27.57
2022-08-07T11:15:14.511Z,27.31
2022-08-07T11:16:07.233Z,27.07
2022-08-07T11:17:07.358Z,27.03
2022-08-07T11:18:06.243Z,27.04
2022-08-07T11:19:06.928Z,26.75
2022-08-07T11:20:06.239Z,26.71
2022-08-07T11:21:06.219Z,26.73
2022-08-07T11:22:06.227Z,26.94
2022-08-07T11:23:07.264Z,26.97
2022-08-07T11:24:06.187Z,27.17
2022-08-07T11:25:06.610Z,27.12
2022-08-07T11:26:06.677Z,27.32
2022-08-07T11:27:06.153Z,27.26
2022-08-07T11:28:06.403Z,27.27
2022-08-07T11:29:13.319Z,27.34
2022-08-07T11:30:17.947Z,27.42
2022-08-07T11:31:08.769Z,27.49
2022-08-07T11:32:06.078Z,27.23
2022-08-07T11:33:08.008Z,26.73
2022-08-07T11:34:06.081Z,26.98
2022-08-07T11:35:06.058Z,27.12
2022-08-07T11:36:10.036Z,27.12
2022-08-07T11:37:06.818Z,27.07
2022-08-07T11:38:10.350Z,27.10
2022-08-07T11:39:06.789Z,27.13
2022-08-07T11:40:06.046Z,27.07
2022-08-07T11:41:06.000Z,27.08
2022-08-07T11:42:05.946Z,27.22
2022-08-07T11:43:05.938Z,27.34
2022-08-07T11:44:11.834Z,27.50
2022-08-07T11:45:05.919Z,27.54
2022-08-07T11:46:06.028Z,27.64
2022-08-07T11:47:05.909Z,27.25
2022-08-07T11:48:13.859Z,26.57
2022-08-07T11:49:50.750Z,26.65
2022-08-07T11:50:33.239Z,26.78
2022-08-07T11:51:09.082Z,26.90
2022-08-07T11:52:06.032Z,27.05
2022-08-07T11:53:05.808Z,27.19
2022-08-07T11:54:10.229Z,27.20
2022-08-07T11:55:13.160Z,27.08
2022-08-07T11:56:24.823Z,27.03
2022-08-07T11:57:05.760Z,26.98
2022-08-07T11:58:16.115Z,27.00
2022-08-07T11:59:22.248Z,27.05
2022-08-07T12:00:19.195Z,26.98
2022-08-07T12:01:06.710Z,26.98
2022-08-07T12:02:17.729Z,27.15
2022-08-07T12:03:05.762Z,27.27
2022-08-07T12:04:05.683Z,27.41
2022-08-07T12:05:08.864Z,27.64
2022-08-07T12:06:37.056Z,27.78
2022-08-07T12:07:09.028Z,27.75
2022-08-07T12:08:05.607Z,27.79
2022-08-07T12:09:05.606Z,27.83
2022-08-07T12:10:06.981Z,27.45
2022-08-07T12:11:20.334Z,27.68
2022-08-07T12:12:10.672Z,27.70
2022-08-07T12:13:11.669Z,27.72
2022-08-07T12:14:05.530Z,27.64
2022-08-07T12:15:05.532Z,27.26
2022-08-07T12:16:08.932Z,27.00
2022-08-07T12:17:05.489Z,26.80
2022-08-07T12:18:08.233Z,26.86
2022-08-07T12:19:05.479Z,27.01
2022-08-07T12:20:10.514Z,26.94
2022-08-07T12:21:05.448Z,27.00
2022-08-07T12:22:37.386Z,27.05
2022-08-07T12:23:09.068Z,27.22
2022-08-07T12:24:12.477Z,27.22
2022-08-07T12:25:07.774Z,27.30
2022-08-07T12:26:23.345Z,27.41
2022-08-07T12:27:14.933Z,27.50
2022-08-07T12:28:09.600Z,27.60
2022-08-07T12:29:05.333Z,27.49
2022-08-07T12:30:05.335Z,27.45
2022-08-07T12:31:05.318Z,27.54
2022-08-07T12:32:07.762Z,27.66
2022-08-07T12:33:09.341Z,27.47
2022-08-07T12:34:11.171Z,27.40
2022-08-07T12:35:05.737Z,27.31
2022-08-07T12:36:05.640Z,27.23
2022-08-07T12:37:08.648Z,27.16
2022-08-07T12:38:11.498Z,27.42
2022-08-07T12:39:09.221Z,27.83
2022-08-07T12:40:05.270Z,27.88
2022-08-07T12:41:05.209Z,28.10
2022-08-07T12:42:05.179Z,28.09
2022-08-07T12:43:09.938Z,28.03
2022-08-07T12:44:09.306Z,28.12
2022-08-07T12:45:05.669Z,27.91
2022-08-07T12:46:05.153Z,27.97
2022-08-07T12:47:06.271Z,28.13
2022-08-07T12:48:05.117Z,28.50
2022-08-07T12:49:09.902Z,28.32
2022-08-07T12:50:39.674Z,28.53
2022-08-07T12:51:12.875Z,28.57
2022-08-07T12:52:12.219Z,28.50
2022-08-07T12:53:05.365Z,28.47
2022-08-07T12:54:37.265Z,28.35
2022-08-07T12:55:05.611Z,28.62
2022-08-07T12:56:09.301Z,28.80